createdAt,value
2019-03-26T00:00:52.874Z,6.43
2019-03-26T00:03:21.655Z,5.90
2019-03-26T00:05:50.305Z,5.93
2019-03-26T00:08:18.424Z,5.70
2019-03-26T00:10:46.438Z,6.30
2019-03-26T00:13:15.018Z,6.20
2019-03-26T00:15:43.285Z,5.90
2019-03-26T00:18:16.107Z,5.93
2019-03-26T00:20:44.106Z,6.07
2019-03-26T00:23:12.113Z,5.53
2019-03-26T00:25:40.271Z,5.73
2019-03-26T00:28:08.396Z,5.57
2019-03-26T00:30:36.618Z,5.40
2019-03-26T00:33:04.669Z,5.80
2019-03-26T00:35:32.847Z,5.87
2019-03-26T00:38:01.562Z,6.20
2019-03-26T00:40:29.594Z,5.43
2019-03-26T00:42:57.717Z,5.83
2019-03-26T00:45:25.826Z,6.17
2019-03-26T00:47:53.942Z,5.87
2019-03-26T00:50:22.086Z,6.30
2019-03-26T00:52:51.131Z,6.17
2019-03-26T00:55:22.941Z,5.50
2019-03-26T00:57:47.616Z,6.10
2019-03-26T01:00:16.165Z,6.13
2019-03-26T01:02:44.288Z,5.40
2019-03-26T01:05:12.572Z,5.90
2019-03-26T01:07:40.626Z,5.73
2019-03-26T01:10:10.444Z,5.70
2019-03-26T01:12:38.590Z,5.53
2019-03-26T01:15:06.951Z,5.73
2019-03-26T01:17:35.155Z,5.87
2019-03-26T01:20:03.425Z,6.00
2019-03-26T01:22:31.585Z,5.40
2019-03-26T01:24:59.801Z,6.37
2019-03-26T01:27:28.138Z,5.60
2019-03-26T01:29:56.247Z,6.07
2019-03-26T01:32:24.262Z,5.87
2019-03-26T01:34:52.308Z,6.23
2019-03-26T01:37:20.357Z,6.10
2019-03-26T01:39:48.628Z,6.00
2019-03-26T01:42:16.796Z,6.87
2019-03-26T01:44:44.800Z,6.37
2019-03-26T01:47:12.870Z,6.80
2019-03-26T01:49:40.933Z,6.60
2019-03-26T01:52:09.046Z,6.33
2019-03-26T01:54:37.178Z,6.70
2019-03-26T01:57:05.592Z,6.80
2019-03-26T01:59:33.648Z,6.33
2019-03-26T02:02:01.682Z,7.37
2019-03-26T02:04:29.829Z,7.23
2019-03-26T02:06:57.849Z,7.23
2019-03-26T02:09:26.057Z,6.97
2019-03-26T02:11:54.108Z,7.10
2019-03-26T02:14:22.113Z,7.00
2019-03-26T02:16:50.153Z,7.57
2019-03-26T02:19:18.164Z,7.17
2019-03-26T02:21:46.165Z,7.40
2019-03-26T02:24:14.193Z,8.10
2019-03-26T02:26:42.239Z,7.43
2019-03-26T02:29:10.246Z,7.77
2019-03-26T02:31:38.331Z,8.10
2019-03-26T02:34:06.507Z,7.87
2019-03-26T02:36:34.659Z,7.90
2019-03-26T02:39:03.030Z,8.60
2019-03-26T02:41:32.301Z,8.57
2019-03-26T02:44:00.430Z,8.90
2019-03-26T02:46:28.469Z,9.00
2019-03-26T02:48:56.546Z,8.63
2019-03-26T02:51:24.625Z,8.57
2019-03-26T02:53:52.629Z,9.13
2019-03-26T02:56:20.754Z,9.07
2019-03-26T02:58:48.763Z,9.10
2019-03-26T03:01:16.751Z,8.77
2019-03-26T03:03:44.762Z,8.67
2019-03-26T03:06:12.822Z,8.47
2019-03-26T03:08:40.836Z,8.80
2019-03-26T03:11:08.867Z,8.00
2019-03-26T03:13:36.860Z,8.70
2019-03-26T03:16:04.883Z,8.10
2019-03-26T03:18:32.883Z,8.50
2019-03-26T03:21:00.912Z,8.20
2019-03-26T03:23:29.320Z,8.10
2019-03-26T03:25:57.362Z,7.63
2019-03-26T03:28:25.369Z,8.70
2019-03-26T03:30:53.451Z,8.93
2019-03-26T03:33:21.573Z,8.70
2019-03-26T03:35:52.453Z,8.43
2019-03-26T03:38:17.727Z,8.30
2019-03-26T03:40:45.762Z,8.17
2019-03-26T03:43:14.014Z,7.93
2019-03-26T03:45:42.054Z,7.80
2019-03-26T03:48:10.061Z,9.27
2019-03-26T03:50:38.390Z,8.67
2019-03-26T03:53:06.478Z,8.90
2019-03-26T03:55:34.540Z,7.77
2019-03-26T03:58:02.561Z,8.53
2019-03-26T04:00:33.702Z,9.43
2019-03-26T04:03:02.146Z,9.27
2019-03-26T04:05:30.282Z,8.80
2019-03-26T04:07:59.444Z,9.37
2019-03-26T04:10:27.532Z,8.27
2019-03-26T04:12:55.561Z,9.17
2019-03-26T04:15:23.946Z,9.43
2019-03-26T04:17:52.398Z,9.33
2019-03-26T04:20:20.578Z,9.37
2019-03-26T04:22:48.599Z,9.33
2019-03-26T04:25:16.645Z,9.20
2019-03-26T04:27:44.636Z,8.70
2019-03-26T04:30:13.343Z,9.23
2019-03-26T04:32:41.394Z,9.30
2019-03-26T04:35:09.470Z,10.13
2019-03-26T04:37:37.476Z,9.20
2019-03-26T04:40:05.585Z,9.80
2019-03-26T04:42:33.658Z,10.27
2019-03-26T04:45:02.191Z,9.70
2019-03-26T04:47:30.378Z,9.70
2019-03-26T04:49:58.645Z,8.53
2019-03-26T04:52:26.668Z,9.73
2019-03-26T04:54:54.788Z,10.27
2019-03-26T04:57:22.868Z,9.90
2019-03-26T04:59:51.415Z,9.13
2019-03-26T05:02:23.498Z,9.50
2019-03-26T05:04:52.595Z,9.13
2019-03-26T05:07:20.610Z,9.50
2019-03-26T05:09:48.657Z,8.90
2019-03-26T05:12:16.678Z,9.00
2019-03-26T05:14:44.687Z,9.17
2019-03-26T05:17:12.749Z,9.10
2019-03-26T05:19:40.833Z,9.33
2019-03-26T05:22:08.833Z,8.50
2019-03-26T05:24:37.029Z,8.87
2019-03-26T05:27:05.054Z,8.57
2019-03-26T05:29:33.097Z,10.30
2019-03-26T05:32:01.162Z,10.50
2019-03-26T05:34:29.194Z,9.40
2019-03-26T05:36:57.357Z,8.73
2019-03-26T05:39:25.932Z,10.33
2019-03-26T05:41:53.982Z,9.27
2019-03-26T05:44:22.022Z,9.50
2019-03-26T05:46:51.288Z,9.80
2019-03-26T05:49:19.292Z,9.73
2019-03-26T05:51:47.324Z,10.00
2019-03-26T05:54:15.378Z,11.17
2019-03-26T05:56:43.382Z,11.63
2019-03-26T05:59:11.460Z,10.80
2019-03-26T06:01:39.484Z,10.93
2019-03-26T06:04:07.540Z,11.87
2019-03-26T06:06:35.524Z,10.93
2019-03-26T06:09:04.296Z,11.43
2019-03-26T06:11:32.321Z,11.13
2019-03-26T06:14:00.351Z,11.53
2019-03-26T06:16:37.875Z,10.97
2019-03-26T06:18:56.569Z,11.13
2019-03-26T06:21:24.745Z,11.90
2019-03-26T06:23:53.887Z,11.70
2019-03-26T06:26:20.885Z,11.30
2019-03-26T06:28:48.997Z,10.73
2019-03-26T06:31:17.197Z,12.00
2019-03-26T06:33:45.353Z,10.97
2019-03-26T06:36:13.401Z,11.37
2019-03-26T06:38:41.421Z,10.87
2019-03-26T06:41:09.429Z,10.80
2019-03-26T06:43:37.423Z,10.03
2019-03-26T06:46:05.433Z,10.87
2019-03-26T06:48:34.056Z,11.20
2019-03-26T06:51:02.060Z,10.77
2019-03-26T06:53:30.069Z,10.80
2019-03-26T06:55:58.073Z,10.03
2019-03-26T06:58:26.083Z,10.77
2019-03-26T07:00:54.159Z,9.67
2019-03-26T07:03:22.169Z,10.47
2019-03-26T07:05:50.145Z,10.40
2019-03-26T07:08:18.170Z,11.07
2019-03-26T07:10:46.235Z,11.63
2019-03-26T07:13:14.182Z,10.73
2019-03-26T07:15:42.221Z,10.40
2019-03-26T07:18:10.237Z,11.20
2019-03-26T07:20:38.240Z,10.80
2019-03-26T07:23:08.431Z,11.07
2019-03-26T07:25:34.340Z,10.70
2019-03-26T07:28:02.352Z,11.00
2019-03-26T07:30:36.826Z,11.03
2019-03-26T07:33:04.798Z,10.50
2019-03-26T07:35:32.794Z,10.13
2019-03-26T07:38:00.819Z,12.50
2019-03-26T07:40:28.813Z,14.53
2019-03-26T07:42:56.833Z,9.83
2019-03-26T07:45:24.873Z,10.00
2019-03-26T07:47:52.881Z,9.80
2019-03-26T07:50:21.133Z,10.13
2019-03-26T07:52:49.238Z,10.03
2019-03-26T07:55:17.301Z,11.00
2019-03-26T07:57:45.336Z,10.00
2019-03-26T08:00:13.361Z,10.30
2019-03-26T08:02:41.352Z,9.77
2019-03-26T08:05:09.414Z,10.20
2019-03-26T08:07:37.422Z,9.77
2019-03-26T08:10:05.765Z,9.93
2019-03-26T08:12:33.909Z,9.73
2019-03-26T08:15:02.179Z,9.40
2019-03-26T08:17:30.363Z,9.50
2019-03-26T08:19:59.220Z,9.47
2019-03-26T08:22:27.334Z,9.37
2019-03-26T08:24:55.405Z,9.27
2019-03-26T08:27:24.018Z,9.67
2019-03-26T08:29:52.079Z,9.60
2019-03-26T08:32:20.161Z,8.80
2019-03-26T08:34:48.242Z,9.23
2019-03-26T08:37:16.328Z,8.97
2019-03-26T08:39:44.341Z,8.67
2019-03-26T08:42:12.337Z,8.97
2019-03-26T08:44:40.511Z,8.97
2019-03-26T08:47:08.561Z,8.40
2019-03-26T08:49:36.625Z,9.10
2019-03-26T08:52:06.897Z,8.13
2019-03-26T08:54:35.597Z,8.57
2019-03-26T08:57:05.496Z,8.57
2019-03-26T08:59:33.504Z,8.30
2019-03-26T09:02:02.621Z,8.23
2019-03-26T09:04:30.637Z,7.87
2019-03-26T09:06:58.691Z,8.53
2019-03-26T09:09:26.755Z,7.83
2019-03-26T09:11:55.081Z,7.37
2019-03-26T09:14:23.234Z,7.53
2019-03-26T09:17:08.185Z,7.43
2019-03-26T09:19:36.314Z,7.50
2019-03-26T09:22:04.372Z,7.70
2019-03-26T09:24:32.392Z,7.37
2019-03-26T09:27:00.427Z,7.87
2019-03-26T09:29:28.432Z,7.63
2019-03-26T09:31:56.444Z,7.37
2019-03-26T09:34:24.478Z,7.90
2019-03-26T09:36:52.504Z,7.43
2019-03-26T09:39:20.549Z,6.97
2019-03-26T09:41:48.604Z,7.23
2019-03-26T09:44:16.604Z,7.00
2019-03-26T09:46:44.644Z,7.20
2019-03-26T09:49:12.676Z,7.10
2019-03-26T09:51:40.689Z,7.90
2019-03-26T09:54:08.890Z,7.40
2019-03-26T09:56:36.982Z,7.40
2019-03-26T09:59:04.988Z,7.00
2019-03-26T10:01:33.019Z,7.00
2019-03-26T10:04:01.059Z,7.13
2019-03-26T10:06:29.100Z,7.20
2019-03-26T10:08:57.112Z,6.77
2019-03-26T10:11:25.145Z,6.60
2019-03-26T10:13:53.161Z,5.93
2019-03-26T10:16:21.185Z,6.33
2019-03-26T10:18:49.251Z,6.43
2019-03-26T10:21:17.280Z,6.67
2019-03-26T10:23:45.308Z,6.37
2019-03-26T10:26:13.386Z,6.53
2019-03-26T10:28:41.451Z,6.30
2019-03-26T10:31:09.473Z,6.00
2019-03-26T10:33:37.512Z,6.40
2019-03-26T10:36:05.522Z,6.50
2019-03-26T10:38:33.548Z,6.63
2019-03-26T10:41:01.574Z,5.90
2019-03-26T10:43:29.606Z,6.47
2019-03-26T10:45:57.617Z,6.30
2019-03-26T10:48:25.649Z,6.07
2019-03-26T10:50:53.665Z,5.63
2019-03-26T10:53:21.666Z,6.03
2019-03-26T10:55:52.178Z,5.93
2019-03-26T10:58:20.221Z,5.80
2019-03-26T11:00:48.221Z,5.70
2019-03-26T11:03:16.216Z,6.27
2019-03-26T11:05:44.232Z,5.07
2019-03-26T11:08:15.526Z,5.00
2019-03-26T11:10:41.653Z,5.80
2019-03-26T11:13:10.028Z,5.33
2019-03-26T11:15:38.026Z,4.83
2019-03-26T11:18:06.051Z,5.17
2019-03-26T11:20:34.029Z,4.63
2019-03-26T11:23:02.023Z,4.53
2019-03-26T11:25:30.043Z,4.33
2019-03-26T11:27:58.037Z,5.17
2019-03-26T11:30:26.013Z,4.63
2019-03-26T11:32:54.008Z,4.80
2019-03-26T11:35:22.009Z,4.33
2019-03-26T11:37:50.051Z,4.67
2019-03-26T11:40:18.093Z,3.97
2019-03-26T11:42:46.120Z,4.70
2019-03-26T11:45:14.150Z,4.60
2019-03-26T11:47:42.177Z,4.80
2019-03-26T11:50:10.264Z,4.33
2019-03-26T11:52:38.543Z,4.47
2019-03-26T11:55:06.977Z,4.03
2019-03-26T11:57:35.393Z,4.33
2019-03-26T12:00:04.467Z,4.60
2019-03-26T12:02:32.646Z,5.00
2019-03-26T12:05:00.577Z,4.37
2019-03-26T12:07:28.590Z,3.97
2019-03-26T12:09:56.651Z,4.13
2019-03-26T12:12:24.673Z,3.83
2019-03-26T12:14:52.700Z,3.57
2019-03-26T12:17:20.724Z,3.90
2019-03-26T12:19:48.737Z,3.90
2019-03-26T12:22:16.728Z,3.90
2019-03-26T12:24:44.736Z,4.17
2019-03-26T12:27:15.736Z,3.97
2019-03-26T12:29:43.797Z,4.30
2019-03-26T12:32:13.241Z,3.63
2019-03-26T12:34:43.071Z,4.40
2019-03-26T12:37:11.266Z,3.90
2019-03-26T12:39:39.301Z,3.87
2019-03-26T12:42:07.295Z,4.10
2019-03-26T12:44:35.323Z,3.50
2019-03-26T12:47:03.341Z,3.90
2019-03-26T12:49:31.398Z,3.70
2019-03-26T12:51:59.404Z,3.30
2019-03-26T12:54:27.456Z,3.47
2019-03-26T12:56:55.471Z,3.30
2019-03-26T12:59:26.514Z,3.50
2019-03-26T13:01:51.657Z,3.30
2019-03-26T13:04:19.683Z,3.10
2019-03-26T13:06:47.705Z,3.77
2019-03-26T13:09:15.757Z,3.00
2019-03-26T13:11:44.622Z,3.63
2019-03-26T13:14:12.664Z,3.03
2019-03-26T13:16:40.703Z,3.23
2019-03-26T13:19:08.728Z,2.80
2019-03-26T13:21:37.647Z,2.53
2019-03-26T13:24:04.812Z,2.60
2019-03-26T13:26:32.820Z,2.50
2019-03-26T13:29:00.828Z,2.53
2019-03-26T13:31:28.849Z,2.87
2019-03-26T13:33:56.889Z,2.90
2019-03-26T13:36:24.929Z,3.20
2019-03-26T13:38:52.927Z,2.63
2019-03-26T13:41:20.947Z,2.73
2019-03-26T13:43:48.947Z,2.70
2019-03-26T13:46:16.967Z,2.90
2019-03-26T13:48:45.008Z,2.60
2019-03-26T13:51:13.053Z,2.53
2019-03-26T13:53:44.101Z,2.60
2019-03-26T13:56:12.128Z,2.70
2019-03-26T13:58:40.241Z,2.33
2019-03-26T14:01:08.806Z,3.23
2019-03-26T14:03:36.793Z,2.87
2019-03-26T14:06:04.810Z,2.80
2019-03-26T14:08:32.897Z,2.83
2019-03-26T14:11:00.894Z,3.53
2019-03-26T14:13:28.898Z,3.67
2019-03-26T14:15:56.895Z,3.93
2019-03-26T14:18:24.915Z,3.70
2019-03-26T14:20:52.915Z,3.53
2019-03-26T14:23:20.948Z,4.23
2019-03-26T14:25:48.953Z,3.40
2019-03-26T14:28:17.004Z,3.40
2019-03-26T14:30:45.001Z,3.43
2019-03-26T14:33:12.992Z,3.07
2019-03-26T14:35:41.044Z,4.00
2019-03-26T14:38:09.117Z,3.80
2019-03-26T14:40:37.165Z,3.70
2019-03-26T14:43:05.436Z,3.73
2019-03-26T14:45:33.460Z,4.27
2019-03-26T14:48:01.446Z,4.20
2019-03-26T14:50:29.436Z,3.47
2019-03-26T14:52:57.461Z,4.13
2019-03-26T14:55:25.449Z,4.43
2019-03-26T14:57:53.555Z,3.90
2019-03-26T15:00:21.617Z,3.90
2019-03-26T15:02:50.410Z,4.00
2019-03-26T15:05:18.467Z,4.30
2019-03-26T15:07:47.279Z,4.80
2019-03-26T15:10:15.797Z,4.80
2019-03-26T15:12:43.827Z,5.03
2019-03-26T15:15:11.874Z,4.43
2019-03-26T15:17:39.881Z,4.60
2019-03-26T15:20:07.926Z,4.77
2019-03-26T15:22:35.970Z,4.67
2019-03-26T15:25:04.068Z,5.10
2019-03-26T15:27:32.072Z,4.60
2019-03-26T15:30:08.998Z,5.10
2019-03-26T15:32:36.989Z,5.10
2019-03-26T15:35:05.072Z,5.00
2019-03-26T15:37:33.075Z,5.13
2019-03-26T15:40:01.087Z,4.67
2019-03-26T15:42:29.068Z,4.03
2019-03-26T15:44:57.110Z,4.40
2019-03-26T15:47:25.947Z,4.17
2019-03-26T15:49:53.937Z,4.10
2019-03-26T15:52:21.958Z,4.80
2019-03-26T15:54:49.960Z,5.33
2019-03-26T15:57:17.934Z,5.67
2019-03-26T15:59:45.986Z,5.33
2019-03-26T16:02:13.987Z,5.57
2019-03-26T16:04:43.442Z,7.40
2019-03-26T16:07:11.464Z,7.37
2019-03-26T16:09:39.453Z,6.13
2019-03-26T16:12:07.450Z,7.10
2019-03-26T16:14:35.477Z,6.90
2019-03-26T16:17:03.546Z,7.10
2019-03-26T16:19:32.897Z,6.70
2019-03-26T16:21:59.502Z,8.00
2019-03-26T16:24:27.517Z,8.13
2019-03-26T16:26:55.519Z,8.00
2019-03-26T16:29:25.899Z,7.70
2019-03-26T16:31:51.569Z,6.73
2019-03-26T16:34:19.580Z,8.70
2019-03-26T16:36:58.970Z,9.17
2019-03-26T16:39:15.637Z,9.73
2019-03-26T16:42:24.129Z,8.03
2019-03-26T16:44:59.377Z,7.83
2019-03-26T16:47:27.394Z,7.23
2019-03-26T16:49:55.767Z,7.73
2019-03-26T16:52:26.544Z,6.80
2019-03-26T16:54:51.761Z,8.73
2019-03-26T16:57:19.741Z,8.43
2019-03-26T16:59:47.729Z,9.07
2019-03-26T17:02:15.786Z,9.10
2019-03-26T17:04:46.835Z,8.70
2019-03-26T17:07:12.975Z,7.90
2019-03-26T17:09:40.988Z,8.70
2019-03-26T17:12:09.082Z,7.70
2019-03-26T17:14:37.109Z,7.53
2019-03-26T17:17:05.128Z,7.83
2019-03-26T17:19:33.133Z,8.40
2019-03-26T17:22:01.133Z,8.40
2019-03-26T17:24:29.129Z,7.53
2019-03-26T17:26:57.132Z,8.03
2019-03-26T17:29:25.774Z,8.27
2019-03-26T17:31:53.919Z,8.30
2019-03-26T17:34:21.926Z,7.77
2019-03-26T17:36:49.971Z,7.53
2019-03-26T17:39:18.001Z,7.63
2019-03-26T17:41:45.997Z,8.13
2019-03-26T17:44:14.085Z,7.90
2019-03-26T17:46:42.153Z,8.30
2019-03-26T17:49:10.266Z,8.37
2019-03-26T17:51:40.772Z,7.63
2019-03-26T17:54:06.364Z,7.17
2019-03-26T17:56:34.408Z,7.23
2019-03-26T17:59:03.089Z,6.37
2019-03-26T18:01:31.185Z,6.70
2019-03-26T18:03:59.448Z,5.80
2019-03-26T18:06:27.849Z,6.37
2019-03-26T18:08:56.007Z,6.50
2019-03-26T18:11:24.132Z,6.97
2019-03-26T18:13:52.267Z,7.20
2019-03-26T18:16:20.333Z,7.20
2019-03-26T18:18:48.592Z,7.33
2019-03-26T18:21:16.950Z,7.00
2019-03-26T18:23:45.201Z,6.80
2019-03-26T18:26:13.501Z,7.13
2019-03-26T18:28:41.705Z,7.30
2019-03-26T18:31:10.266Z,6.77
2019-03-26T18:33:38.340Z,6.70
2019-03-26T18:36:06.541Z,6.63
2019-03-26T18:38:34.887Z,6.27
2019-03-26T18:41:03.143Z,6.43
2019-03-26T18:43:31.314Z,6.37
2019-03-26T18:45:59.862Z,6.80
2019-03-26T18:48:28.010Z,6.87
2019-03-26T18:50:56.064Z,6.93
2019-03-26T18:53:25.358Z,7.30
2019-03-26T18:55:56.078Z,7.30
2019-03-26T18:58:25.046Z,6.83
2019-03-26T19:00:53.656Z,6.63
2019-03-26T19:03:29.558Z,7.20
2019-03-26T19:06:03.610Z,7.23
2019-03-26T19:08:33.715Z,8.10
2019-03-26T19:11:02.033Z,7.60
2019-03-26T19:13:30.910Z,7.43
2019-03-26T19:15:59.318Z,7.10
2019-03-26T19:18:27.585Z,7.43
2019-03-26T19:24:04.069Z,7.90
2019-03-26T19:26:23.383Z,7.27
2019-03-26T19:31:54.220Z,7.43
2019-03-26T19:34:22.281Z,7.40
2019-03-26T19:36:50.759Z,7.53
2019-03-26T19:39:19.997Z,7.13
2019-03-26T19:41:48.244Z,7.40
2019-03-26T19:44:16.646Z,8.17
2019-03-26T19:46:44.831Z,7.10
2019-03-26T19:49:13.121Z,8.23
2019-03-26T19:51:41.363Z,7.63
2019-03-26T19:54:09.676Z,7.60
2019-03-26T19:56:39.756Z,7.13
2019-03-26T19:59:07.912Z,7.30
2019-03-26T20:01:39.616Z,7.80
2019-03-26T20:04:07.865Z,7.10
2019-03-26T20:06:36.110Z,8.33
2019-03-26T20:09:06.067Z,8.00
2019-03-26T20:11:34.320Z,8.17
2019-03-26T20:14:02.664Z,8.90
2019-03-26T20:16:41.343Z,8.93
2019-03-26T20:18:59.233Z,9.50
2019-03-26T20:21:27.620Z,9.37
2019-03-26T20:23:55.962Z,9.07
2019-03-26T20:26:24.347Z,10.43
2019-03-26T20:28:52.662Z,9.57
2019-03-26T20:31:21.118Z,9.80
2019-03-26T20:33:49.385Z,9.20
2019-03-26T20:36:17.737Z,9.27
2019-03-26T20:38:45.987Z,8.23
2019-03-26T20:41:14.342Z,8.47
2019-03-26T20:43:42.511Z,8.43
2019-03-26T20:46:10.911Z,9.20
2019-03-26T20:48:39.185Z,8.73
2019-03-26T20:51:07.330Z,8.50
2019-03-26T20:53:35.446Z,9.07
2019-03-26T20:56:03.587Z,8.73
2019-03-26T20:58:31.657Z,9.30
2019-03-26T21:01:00.162Z,8.93
2019-03-26T21:03:28.349Z,8.60
2019-03-26T21:06:12.120Z,8.83
2019-03-26T21:08:40.522Z,9.30
2019-03-26T21:11:11.403Z,9.67
2019-03-26T21:13:50.242Z,10.23
2019-03-26T21:16:08.777Z,11.47
2019-03-26T21:18:54.414Z,11.37
2019-03-26T21:21:26.496Z,10.93
2019-03-26T21:23:57.218Z,10.50
2019-03-26T21:26:25.474Z,11.13
2019-03-26T21:28:53.837Z,10.10
2019-03-26T21:31:22.015Z,10.03
2019-03-26T21:33:50.560Z,10.07
2019-03-26T21:36:18.947Z,10.33
2019-03-26T21:38:47.207Z,9.97
2019-03-26T21:41:15.495Z,9.00
2019-03-26T21:43:43.914Z,9.80
2019-03-26T21:46:59.394Z,9.87
2019-03-26T21:49:42.443Z,10.40
2019-03-26T21:52:16.386Z,10.43
2019-03-26T21:54:44.687Z,8.83
2019-03-26T21:57:12.890Z,9.83
2019-03-26T21:59:41.086Z,9.70
2019-03-26T22:02:09.432Z,9.33
2019-03-26T22:04:37.856Z,9.73
2019-03-26T22:07:06.132Z,10.13
2019-03-26T22:09:34.189Z,11.00
2019-03-26T22:12:04.661Z,10.67
2019-03-26T22:14:33.519Z,11.27
2019-03-26T22:17:01.588Z,10.50
2019-03-26T22:19:29.612Z,10.53
2019-03-26T22:21:57.658Z,10.40
2019-03-26T22:24:25.748Z,11.23
2019-03-26T22:26:53.785Z,11.40
2019-03-26T22:29:21.811Z,10.90
2019-03-26T22:31:50.040Z,11.60
2019-03-26T22:34:18.162Z,9.97
2019-03-26T22:37:07.619Z,9.80
2019-03-26T22:39:35.908Z,9.70
2019-03-26T22:42:04.053Z,10.27
2019-03-26T22:44:32.262Z,9.20
2019-03-26T22:47:00.281Z,9.80
2019-03-26T22:49:28.377Z,9.23
2019-03-26T22:51:56.405Z,10.73
2019-03-26T22:54:24.402Z,10.37
2019-03-26T22:56:52.417Z,9.93
2019-03-26T22:59:20.459Z,10.13
2019-03-26T23:01:48.534Z,9.00
2019-03-26T23:04:19.774Z,9.63
2019-03-26T23:06:44.785Z,9.10
2019-03-26T23:09:12.973Z,10.00
2019-03-26T23:11:41.089Z,9.53
2019-03-26T23:14:10.642Z,9.53
2019-03-26T23:16:38.736Z,10.37
2019-03-26T23:19:06.737Z,9.90
2019-03-26T23:21:34.781Z,10.63
2019-03-26T23:24:02.776Z,9.77
2019-03-26T23:26:30.806Z,10.27
2019-03-26T23:28:58.844Z,10.47
2019-03-26T23:31:26.854Z,9.73
2019-03-26T23:33:54.864Z,9.60
2019-03-26T23:36:22.889Z,9.80
2019-03-26T23:38:50.885Z,9.73
2019-03-26T23:41:18.890Z,9.07
2019-03-26T23:43:46.908Z,9.23
2019-03-26T23:46:14.899Z,10.90
2019-03-26T23:48:42.886Z,9.57
2019-03-26T23:51:10.933Z,10.37
2019-03-26T23:53:38.921Z,9.40
2019-03-26T23:56:06.941Z,10.27
2019-03-26T23:58:34.957Z,9.77
